createdAt,value
2017-09-25T00:02:13.064Z,99468.19
2017-09-25T00:04:40.535Z,99461.92
2017-09-25T00:07:08.024Z,99463.02
2017-09-25T00:09:35.487Z,99460.58
2017-09-25T00:12:03.287Z,99461.39
2017-09-25T00:14:30.757Z,99458.02
2017-09-25T00:16:58.214Z,99459.28
2017-09-25T00:19:25.690Z,99462.70
2017-09-25T00:21:53.148Z,99459.76
2017-09-25T00:24:20.623Z,99458.85
2017-09-25T00:26:48.091Z,99460.02
2017-09-25T00:29:15.887Z,99454.23
2017-09-25T00:31:43.356Z,99455.84
2017-09-25T00:34:10.898Z,99449.40
2017-09-25T00:36:38.361Z,99450.39
2017-09-25T00:39:05.829Z,99448.41
2017-09-25T00:41:33.682Z,99447.76
2017-09-25T00:44:01.160Z,99444.81
2017-09-25T00:46:28.656Z,99442.45
2017-09-25T00:48:56.129Z,99441.80
2017-09-25T00:51:23.601Z,99441.66
2017-09-25T00:53:57.910Z,99435.35
2017-09-25T00:56:25.386Z,99438.00
2017-09-25T00:58:52.870Z,99439.75
2017-09-25T01:01:20.332Z,99444.91
2017-09-25T01:03:53.783Z,99438.28
2017-09-25T01:06:26.131Z,99435.15
2017-09-25T01:08:53.934Z,99435.22
2017-09-25T01:11:21.850Z,99439.19
2017-09-25T01:13:49.373Z,99437.94
2017-09-25T01:16:16.850Z,99430.41
2017-09-25T01:18:44.310Z,99431.38
2017-09-25T01:21:11.838Z,99433.64
2017-09-25T01:23:39.323Z,99430.36
2017-09-25T01:26:07.073Z,99430.59
2017-09-25T01:28:34.539Z,99428.73
2017-09-25T01:31:02.004Z,99425.71
2017-09-25T01:33:30.372Z,99420.88
2017-09-25T01:35:57.830Z,99415.15
2017-09-25T01:38:25.324Z,99412.87
2017-09-25T01:40:52.803Z,99416.23
2017-09-25T01:43:20.284Z,99411.23
2017-09-25T01:45:47.752Z,99405.82
2017-09-25T01:48:15.250Z,99412.88
2017-09-25T01:50:42.711Z,99409.27
2017-09-25T01:53:10.517Z,99400.66
2017-09-25T01:55:37.992Z,99397.40
2017-09-25T01:58:05.450Z,99401.00
2017-09-25T02:00:32.987Z,99399.27
2017-09-25T02:03:00.454Z,99399.86
2017-09-25T02:05:27.927Z,99399.89
2017-09-25T02:07:55.875Z,99397.32
2017-09-25T02:10:23.355Z,99397.36
2017-09-25T02:12:50.969Z,99395.72
2017-09-25T02:15:18.768Z,99399.86
2017-09-25T02:17:46.245Z,99400.47
2017-09-25T02:20:13.768Z,99399.21
2017-09-25T02:22:41.538Z,99390.53
2017-09-25T02:25:09.063Z,99393.48
2017-09-25T02:27:36.552Z,99387.16
2017-09-25T02:30:04.048Z,99385.22
2017-09-25T02:32:31.514Z,99386.83
2017-09-25T02:34:59.343Z,99385.28
2017-09-25T02:37:26.892Z,99382.38
2017-09-25T02:39:54.353Z,99382.19
2017-09-25T02:42:21.828Z,99385.93
2017-09-25T02:44:49.299Z,99388.12
2017-09-25T02:47:17.127Z,99387.51
2017-09-25T02:49:44.579Z,99385.83
2017-09-25T02:52:12.155Z,99386.25
2017-09-25T02:54:39.638Z,99385.96
2017-09-25T02:57:07.099Z,99384.86
2017-09-25T02:59:34.851Z,99389.60
2017-09-25T03:02:02.319Z,99381.70
2017-09-25T03:04:29.785Z,99383.63
2017-09-25T03:06:57.279Z,99378.28
2017-09-25T03:09:24.747Z,99379.38
2017-09-25T03:11:52.315Z,99377.95
2017-09-25T03:14:19.800Z,99376.69
2017-09-25T03:16:47.644Z,99367.76
2017-09-25T03:19:15.099Z,99370.83
2017-09-25T03:21:42.563Z,99379.75
2017-09-25T03:24:10.032Z,99370.14
2017-09-25T03:26:37.499Z,99373.27
2017-09-25T03:29:05.351Z,99373.75
2017-09-25T03:31:32.828Z,99377.81
2017-09-25T03:34:00.295Z,99374.46
2017-09-25T03:36:27.814Z,99380.52
2017-09-25T03:38:55.368Z,99382.12
2017-09-25T03:41:22.855Z,99373.93
2017-09-25T03:43:50.387Z,99371.00
2017-09-25T03:46:17.866Z,99371.28
2017-09-25T03:48:45.325Z,99372.67
2017-09-25T03:51:12.800Z,99374.63
2017-09-25T03:53:40.271Z,99380.41
2017-09-25T03:56:08.084Z,99377.82
2017-09-25T03:58:35.620Z,99375.41
2017-09-25T04:01:03.092Z,99380.06
2017-09-25T04:03:30.551Z,99381.58
2017-09-25T04:05:58.008Z,99376.39
2017-09-25T04:08:25.776Z,99380.90
2017-09-25T04:10:53.252Z,99383.95
2017-09-25T04:13:20.719Z,99378.67
2017-09-25T04:15:48.193Z,99378.73
2017-09-25T04:18:15.659Z,99373.52
2017-09-25T04:20:43.468Z,99377.00
2017-09-25T04:23:10.933Z,99374.71
2017-09-25T04:25:38.399Z,99371.16
2017-09-25T04:28:05.902Z,99374.65
2017-09-25T04:30:33.364Z,99375.97
2017-09-25T04:33:00.862Z,99376.71
2017-09-25T04:35:28.326Z,99375.55
2017-09-25T04:37:55.792Z,99378.19
2017-09-25T04:40:23.291Z,99378.80
2017-09-25T04:42:50.767Z,99375.67
2017-09-25T04:45:18.228Z,99372.77
2017-09-25T04:47:46.015Z,99380.77
2017-09-25T04:50:13.568Z,99385.00
2017-09-25T04:52:41.036Z,99377.30
2017-09-25T04:55:08.530Z,99383.42
2017-09-25T04:57:36.003Z,99387.02
2017-09-25T05:00:03.817Z,99386.13
2017-09-25T05:02:31.302Z,99379.52
2017-09-25T05:04:58.770Z,99377.91
2017-09-25T05:07:26.260Z,99379.32
2017-09-25T05:09:53.723Z,99381.25
2017-09-25T05:12:21.237Z,99382.17
2017-09-25T05:14:48.766Z,99389.80
2017-09-25T05:17:16.244Z,99388.57
2017-09-25T05:19:43.736Z,99396.34
2017-09-25T05:22:11.208Z,99395.44
2017-09-25T05:24:38.688Z,99389.05
2017-09-25T05:27:06.561Z,99390.56
2017-09-25T05:29:34.019Z,99390.23
2017-09-25T05:32:01.479Z,99381.83
2017-09-25T05:34:28.953Z,99385.79
2017-09-25T05:36:56.412Z,99393.13
2017-09-25T05:39:23.895Z,99392.81
2017-09-25T05:41:51.407Z,99402.44
2017-09-25T05:44:18.878Z,99396.41
2017-09-25T05:46:46.331Z,99395.16
2017-09-25T05:49:13.814Z,99398.64
2017-09-25T05:51:41.286Z,99396.21
2017-09-25T05:54:08.775Z,99397.95
2017-09-25T05:56:36.259Z,99401.07
2017-09-25T05:59:04.107Z,99398.43
2017-09-25T06:01:31.561Z,99394.23
2017-09-25T06:03:59.095Z,99399.67
2017-09-25T06:06:26.592Z,99393.55
2017-09-25T06:08:54.494Z,99401.05
2017-09-25T06:11:22.464Z,99395.23
2017-09-25T06:13:51.718Z,99398.62
2017-09-25T06:16:19.200Z,99401.91
2017-09-25T06:18:47.902Z,99407.52
2017-09-25T06:21:16.053Z,99407.24
2017-09-25T06:23:43.527Z,99405.44
2017-09-25T06:26:11.021Z,99410.09
2017-09-25T06:28:38.759Z,99398.56
2017-09-25T06:31:06.235Z,99403.44
2017-09-25T06:33:33.745Z,99402.26
2017-09-25T06:36:01.229Z,99402.81
2017-09-25T06:38:28.791Z,99400.80
2017-09-25T06:41:00.356Z,99401.89
2017-09-25T06:43:28.292Z,99400.84
2017-09-25T06:45:55.796Z,99402.45
2017-09-25T06:48:23.286Z,99402.72
2017-09-25T06:50:50.871Z,99398.41
2017-09-25T06:53:18.379Z,99402.09
2017-09-25T06:55:45.879Z,99399.16
2017-09-25T06:58:13.357Z,99400.68
2017-09-25T07:00:40.843Z,99397.85
2017-09-25T07:03:08.323Z,99390.66
2017-09-25T07:05:35.821Z,99395.77
2017-09-25T07:08:03.318Z,99396.86
2017-09-25T07:10:31.134Z,99393.09
2017-09-25T07:12:58.620Z,99391.48
2017-09-25T07:15:26.115Z,99393.78
2017-09-25T07:17:53.610Z,99391.27
2017-09-25T07:20:21.076Z,99388.38
2017-09-25T07:22:48.918Z,99395.47
2017-09-25T07:25:16.400Z,99387.57
2017-09-25T07:27:43.846Z,99387.28
2017-09-25T07:30:11.350Z,99384.77
2017-09-25T07:32:38.817Z,99386.58
2017-09-25T07:35:06.334Z,99397.22
2017-09-25T07:37:33.905Z,99385.86
2017-09-25T07:40:01.664Z,99385.90
2017-09-25T07:42:29.121Z,99389.45
2017-09-25T07:44:56.607Z,99391.25
2017-09-25T07:47:24.102Z,99380.98
2017-09-25T07:49:51.558Z,99385.75
2017-09-25T07:52:19.091Z,99385.45
2017-09-25T07:54:46.582Z,99382.73
2017-09-25T07:57:14.354Z,99386.31
2017-09-25T07:59:41.827Z,99383.73
2017-09-25T08:02:09.309Z,99379.81
2017-09-25T08:04:36.800Z,99382.09
2017-09-25T08:07:04.277Z,99389.58
2017-09-25T08:09:31.751Z,99384.69
2017-09-25T08:11:59.219Z,99378.19
2017-09-25T08:14:26.715Z,99378.14
2017-09-25T08:16:54.189Z,99385.98
2017-09-25T08:19:21.660Z,99387.70
2017-09-25T08:21:49.127Z,99391.91
2017-09-25T08:24:16.610Z,99399.09
2017-09-25T08:26:44.215Z,99392.25
2017-09-25T08:29:11.795Z,99389.69
2017-09-25T08:31:39.264Z,99390.48
2017-09-25T08:34:07.135Z,99392.59
2017-09-25T08:36:34.602Z,99394.79
2017-09-25T08:39:02.089Z,99392.19
2017-09-25T08:41:29.580Z,99392.41
2017-09-25T08:43:57.074Z,99393.02
2017-09-25T08:46:24.675Z,99394.45
2017-09-25T08:48:52.158Z,99392.72
2017-09-25T08:51:19.667Z,99397.16
2017-09-25T08:53:47.128Z,99389.42
2017-09-25T08:56:14.603Z,99391.45
2017-09-25T08:58:42.075Z,99388.84
2017-09-25T09:01:09.581Z,99387.38
2017-09-25T09:03:37.069Z,99392.22
2017-09-25T09:06:04.548Z,99390.58
2017-09-25T09:08:43.955Z,99386.81
2017-09-25T09:11:11.792Z,99384.22
2017-09-25T09:13:39.271Z,99385.70
2017-09-25T09:16:06.754Z,99384.37
2017-09-25T09:18:34.227Z,99376.37
2017-09-25T09:21:01.729Z,99383.84
2017-09-25T09:23:29.215Z,99381.80
2017-09-25T09:25:56.716Z,99383.31
2017-09-25T09:28:24.281Z,99379.94
2017-09-25T09:30:51.833Z,99376.72
2017-09-25T09:33:19.596Z,99372.68
2017-09-25T09:35:47.056Z,99373.19
2017-09-25T09:38:14.533Z,99372.69
2017-09-25T09:40:42.050Z,99372.03
2017-09-25T09:43:09.536Z,99369.14
2017-09-25T09:45:37.102Z,99362.38
2017-09-25T09:48:04.577Z,99361.30
2017-09-25T09:50:32.627Z,99365.46
2017-09-25T09:53:00.102Z,99357.59
2017-09-25T09:55:27.631Z,99363.97
2017-09-25T09:57:55.711Z,99365.36
2017-09-25T10:00:23.187Z,99355.36
2017-09-25T10:02:50.668Z,99347.13
2017-09-25T10:05:18.143Z,99348.02
2017-09-25T10:07:45.677Z,99355.59
2017-09-25T10:10:13.165Z,99351.58
2017-09-25T10:12:40.966Z,99356.05
2017-09-25T10:15:08.441Z,99348.27
2017-09-25T10:17:35.921Z,99348.25
2017-09-25T10:20:03.487Z,99353.48
2017-09-25T10:22:30.972Z,99350.96
2017-09-25T10:24:58.466Z,99351.19
2017-09-25T10:27:25.956Z,99352.63
2017-09-25T10:29:53.427Z,99346.81
2017-09-25T10:32:21.257Z,99342.42
2017-09-25T10:34:48.726Z,99344.45
2017-09-25T10:37:16.283Z,99343.48
2017-09-25T10:39:43.808Z,99341.69
2017-09-25T10:42:11.397Z,99338.19
2017-09-25T10:44:38.874Z,99328.66
2017-09-25T10:47:06.357Z,99331.39
2017-09-25T10:49:33.831Z,99330.11
2017-09-25T10:52:01.357Z,99335.53
2017-09-25T10:54:29.099Z,99338.45
2017-09-25T10:56:56.604Z,99341.40
2017-09-25T10:59:24.136Z,99329.42
2017-09-25T11:01:51.626Z,99332.13
2017-09-25T11:04:19.074Z,99327.42
2017-09-25T11:06:46.581Z,99325.56
2017-09-25T11:09:14.112Z,99331.70
2017-09-25T11:11:41.604Z,99325.86
2017-09-25T11:14:09.100Z,99330.98
2017-09-25T11:16:36.852Z,99320.06
2017-09-25T11:21:31.129Z,99318.07
2017-09-25T11:23:58.625Z,99318.27
2017-09-25T11:26:26.201Z,99317.92
2017-09-25T11:28:53.700Z,99315.99
2017-09-25T11:31:21.176Z,99312.55
2017-09-25T11:33:48.656Z,99308.53
2017-09-25T11:36:16.180Z,99307.77
2017-09-25T11:38:43.990Z,99312.61
2017-09-25T11:41:11.517Z,99306.53
2017-09-25T11:43:39.056Z,99304.58
2017-09-25T11:46:06.567Z,99309.93
2017-09-25T11:48:34.078Z,99310.13
2017-09-25T11:51:01.601Z,99307.49
2017-09-25T11:53:29.113Z,99307.37
2017-09-25T11:55:56.855Z,99300.86
2017-09-25T11:58:24.325Z,99301.48
2017-09-25T12:00:51.853Z,99307.33
2017-09-25T12:03:19.440Z,99299.83
2017-09-25T12:05:46.981Z,99297.34
2017-09-25T12:08:14.460Z,99297.59
2017-09-25T12:10:42.040Z,99289.84
2017-09-25T12:13:09.514Z,99295.56
2017-09-25T12:15:36.994Z,99293.28
2017-09-25T12:18:04.823Z,99298.31
2017-09-25T12:20:32.308Z,99297.59
2017-09-25T12:22:59.782Z,99297.81
2017-09-25T12:25:27.355Z,99291.76
2017-09-25T12:27:54.817Z,99299.55
2017-09-25T12:30:22.363Z,99292.28
2017-09-25T12:32:49.841Z,99285.36
2017-09-25T12:35:17.608Z,99293.17
2017-09-25T12:37:45.110Z,99289.55
2017-09-25T12:40:12.641Z,99291.25
2017-09-25T12:42:40.136Z,99296.60
2017-09-25T12:45:07.652Z,99288.17
2017-09-25T12:47:35.159Z,99289.12
2017-09-25T12:50:02.656Z,99289.34
2017-09-25T12:52:30.140Z,99288.29
2017-09-25T12:54:57.606Z,99288.77
2017-09-25T12:57:25.087Z,99284.86
2017-09-25T12:59:52.590Z,99281.70
2017-09-25T13:02:20.066Z,99279.77
2017-09-25T13:04:47.549Z,99276.58
2017-09-25T13:07:15.009Z,99273.80
2017-09-25T13:09:42.799Z,99274.95
2017-09-25T13:12:10.267Z,99276.79
2017-09-25T13:14:37.730Z,99275.81
2017-09-25T13:17:05.222Z,99275.36
2017-09-25T13:19:32.679Z,99267.94
2017-09-25T13:22:00.553Z,99270.26
2017-09-25T13:24:28.044Z,99270.37
2017-09-25T13:26:55.536Z,99272.39
2017-09-25T13:29:23.028Z,99268.73
2017-09-25T13:31:50.496Z,99271.69
2017-09-25T13:34:18.299Z,99264.77
2017-09-25T13:36:45.802Z,99266.98
2017-09-25T13:39:13.286Z,99261.02
2017-09-25T13:41:40.826Z,99260.44
2017-09-25T13:44:08.358Z,99263.86
2017-09-25T13:46:35.860Z,99262.63
2017-09-25T13:49:03.344Z,99265.61
2017-09-25T13:51:31.172Z,99263.20
2017-09-25T13:53:58.627Z,99264.47
2017-09-25T13:56:26.105Z,99265.35
2017-09-25T14:03:59.058Z,99258.58
2017-09-25T14:06:26.568Z,99259.66
2017-09-25T14:08:54.054Z,99260.42
2017-09-25T14:11:21.566Z,99255.17
2017-09-25T14:13:49.078Z,99262.81
2017-09-25T14:16:16.578Z,99259.23
2017-09-25T14:18:44.419Z,99259.75
2017-09-25T14:21:11.872Z,99261.53
2017-09-25T14:23:39.354Z,99253.61
2017-09-25T14:26:06.876Z,99255.98
2017-09-25T14:28:34.373Z,99254.52
2017-09-25T14:31:01.848Z,99253.61
2017-09-25T14:33:29.303Z,99259.25
2017-09-25T14:35:57.131Z,99253.55
2017-09-25T14:38:24.590Z,99259.38
2017-09-25T14:40:52.083Z,99254.75
2017-09-25T14:43:19.595Z,99256.23
2017-09-25T14:45:47.083Z,99259.09
2017-09-25T14:48:14.746Z,99260.46
2017-09-25T14:50:42.245Z,99255.69
2017-09-25T14:53:09.745Z,99251.73
2017-09-25T14:55:37.216Z,99254.81
2017-09-25T14:58:04.715Z,99255.03
2017-09-25T15:00:32.237Z,99256.05
2017-09-25T15:03:00.075Z,99262.50
2017-09-25T15:05:27.536Z,99255.97
2017-09-25T15:07:55.010Z,99253.48
2017-09-25T15:10:22.514Z,99253.36
2017-09-25T15:12:49.988Z,99256.83
2017-09-25T15:15:17.449Z,99256.28
2017-09-25T15:17:44.899Z,99254.60
2017-09-25T15:20:12.383Z,99256.92
2017-09-25T15:22:39.867Z,99255.38
2017-09-25T15:25:07.342Z,99252.67
2017-09-25T15:27:34.804Z,99250.18
2017-09-25T15:30:02.275Z,99255.31
2017-09-25T15:32:29.748Z,99258.19
2017-09-25T15:34:57.217Z,99257.58
2017-09-25T15:37:24.737Z,99258.17
2017-09-25T15:39:52.223Z,99258.66
2017-09-25T15:42:19.716Z,99265.39
2017-09-25T15:44:47.223Z,99262.77
2017-09-25T15:47:14.970Z,99263.09
2017-09-25T15:49:42.431Z,99266.78
2017-09-25T15:52:09.909Z,99260.42
2017-09-25T15:54:37.396Z,99271.06
2017-09-25T15:57:04.857Z,99266.63
2017-09-25T15:59:32.338Z,99268.29
2017-09-25T16:01:59.826Z,99269.31
2017-09-25T16:04:27.630Z,99269.87
2017-09-25T16:06:55.095Z,99274.64
2017-09-25T16:09:22.560Z,99270.89
2017-09-25T16:11:50.036Z,99263.59
2017-09-25T16:14:17.559Z,99262.57
2017-09-25T16:16:45.430Z,99263.53
2017-09-25T16:19:12.909Z,99265.41
2017-09-25T16:21:40.377Z,99263.50
2017-09-25T16:24:07.866Z,99273.09
2017-09-25T16:26:35.338Z,99265.38
2017-09-25T16:29:03.082Z,99268.50
2017-09-25T16:31:30.554Z,99272.85
2017-09-25T16:33:58.118Z,99270.73
2017-09-25T16:36:25.660Z,99275.10
2017-09-25T16:38:53.129Z,99268.17
2017-09-25T16:41:20.620Z,99268.00
2017-09-25T16:43:48.076Z,99271.79
2017-09-25T16:46:15.557Z,99276.98
2017-09-25T16:48:43.032Z,99280.09
2017-09-25T16:51:10.844Z,99281.20
2017-09-25T16:53:38.304Z,99283.84
2017-09-25T16:56:05.771Z,99287.83
2017-09-25T16:58:33.249Z,99289.47
2017-09-25T17:01:00.711Z,99284.53
2017-09-25T17:03:28.548Z,99292.00
2017-09-25T17:05:56.008Z,99290.73
2017-09-25T17:08:23.478Z,99290.89
2017-09-25T17:10:50.994Z,99287.85
2017-09-25T17:13:18.487Z,99294.12
2017-09-25T17:15:46.343Z,99289.44
2017-09-25T17:18:13.828Z,99298.72
2017-09-25T17:20:41.292Z,99294.74
2017-09-25T17:23:08.775Z,99295.87
2017-09-25T17:25:36.247Z,99302.58
2017-09-25T17:28:03.744Z,99305.25
2017-09-25T17:30:31.271Z,99307.18
2017-09-25T17:32:58.745Z,99311.31
2017-09-25T17:35:36.497Z,99310.52
2017-09-25T17:38:04.221Z,99312.28
2017-09-25T17:40:31.686Z,99317.10
2017-09-25T17:42:59.143Z,99321.37
2017-09-25T17:45:26.618Z,99319.09
2017-09-25T17:47:54.122Z,99319.78
2017-09-25T17:50:21.654Z,99321.95
2017-09-25T17:52:49.110Z,99320.14
2017-09-25T17:55:16.606Z,99321.23
2017-09-25T17:57:44.156Z,99328.57
2017-09-25T18:00:11.618Z,99334.80
2017-09-25T18:02:39.089Z,99322.29
2017-09-25T18:05:06.830Z,99332.09
2017-09-25T18:07:34.435Z,99333.11
2017-09-25T18:10:01.939Z,99333.67
2017-09-25T18:12:29.429Z,99332.87
2017-09-25T18:14:56.937Z,99336.43
2017-09-25T18:17:24.408Z,99340.19
2017-09-25T18:19:51.861Z,99338.17
2017-09-25T18:22:19.588Z,99338.35
2017-09-25T18:24:47.073Z,99336.52
2017-09-25T18:27:14.562Z,99341.88
2017-09-25T18:29:42.035Z,99340.46
2017-09-25T18:32:09.493Z,99343.86
2017-09-25T18:34:36.969Z,99343.69
2017-09-25T18:37:04.432Z,99349.35
2017-09-25T18:39:32.250Z,99343.03
2017-09-25T18:41:59.718Z,99343.77
2017-09-25T18:44:27.209Z,99344.17
2017-09-25T18:46:54.690Z,99349.97
2017-09-25T18:49:22.162Z,99347.98
2017-09-25T18:51:50.100Z,99348.66
2017-09-25T18:54:17.652Z,99346.98
2017-09-25T18:56:45.587Z,99344.30
2017-09-25T18:59:13.063Z,99343.81
2017-09-25T19:01:40.528Z,99347.98
2017-09-25T19:04:08.019Z,99347.29
2017-09-25T19:06:35.513Z,99337.16
2017-09-25T19:09:02.984Z,99336.32
2017-09-25T19:11:30.451Z,99340.56
2017-09-25T19:13:58.011Z,99340.31
2017-09-25T19:16:25.500Z,99340.30
2017-09-25T19:18:52.990Z,99350.34
2017-09-25T19:21:20.864Z,99338.30
2017-09-25T19:23:48.337Z,99351.97
2017-09-25T19:26:15.925Z,99344.08
2017-09-25T19:28:43.646Z,99352.95
2017-09-25T19:31:11.118Z,99351.48
2017-09-25T19:33:38.615Z,99346.93
2017-09-25T19:36:06.095Z,99348.64
2017-09-25T19:38:33.590Z,99343.68
2017-09-25T19:41:01.067Z,99346.41
2017-09-25T19:43:28.541Z,99353.15
2017-09-25T19:45:56.007Z,99345.98
2017-09-25T19:48:29.468Z,99355.53
2017-09-25T19:51:02.507Z,99353.70
2017-09-25T19:53:30.328Z,99351.66
2017-09-25T19:55:58.631Z,99347.98
2017-09-25T19:58:26.524Z,99349.95
2017-09-25T20:00:54.102Z,99354.85
2017-09-25T20:03:21.568Z,99350.45
2017-09-25T20:05:49.085Z,99351.75
2017-09-25T20:08:16.875Z,99354.13
2017-09-25T20:10:44.340Z,99356.37
2017-09-25T20:13:11.817Z,99356.44
2017-09-25T20:15:45.950Z,99359.27
2017-09-25T20:18:15.793Z,99365.13
2017-09-25T20:20:43.269Z,99363.95
2017-09-25T20:23:10.743Z,99361.05
2017-09-25T20:25:38.211Z,99359.23
2017-09-25T20:28:05.754Z,99363.19
2017-09-25T20:30:33.216Z,99357.70
2017-09-25T20:33:00.678Z,99362.10
2017-09-25T20:35:28.439Z,99364.09
2017-09-25T20:37:55.939Z,99365.28
2017-09-25T20:43:31.897Z,99364.72
2017-09-25T20:45:59.792Z,99365.45
2017-09-25T20:48:27.255Z,99364.51
2017-09-25T20:50:54.722Z,99369.01
2017-09-25T20:53:22.253Z,99368.91
2017-09-25T20:55:49.723Z,99369.88
2017-09-25T20:58:17.224Z,99369.41
2017-09-25T21:00:44.710Z,99371.19
2017-09-25T21:03:12.572Z,99370.31
2017-09-25T21:05:40.055Z,99360.50
2017-09-25T21:08:07.525Z,99367.43
2017-09-25T21:10:35.053Z,99366.69
2017-09-25T21:13:02.516Z,99353.03
2017-09-25T21:15:30.024Z,99366.46
2017-09-25T21:17:57.501Z,99369.63
2017-09-25T21:20:25.007Z,99363.14
2017-09-25T21:22:52.468Z,99364.05
2017-09-25T21:25:20.287Z,99369.61
2017-09-25T21:27:47.800Z,99366.95
2017-09-25T21:30:15.265Z,99371.26
2017-09-25T21:32:42.755Z,99370.17
2017-09-25T21:35:10.228Z,99368.20
2017-09-25T21:37:37.725Z,99368.68
2017-09-25T21:40:05.218Z,99364.84
2017-09-25T21:42:32.994Z,99359.78
2017-09-25T21:45:00.470Z,99362.91
2017-09-25T21:47:27.926Z,99362.73
2017-09-25T21:49:55.478Z,99362.13
2017-09-25T21:52:22.946Z,99358.94
2017-09-25T21:54:50.442Z,99361.47
2017-09-25T21:57:18.759Z,99361.47
2017-09-25T21:59:46.235Z,99359.19
2017-09-25T22:02:13.695Z,99360.40
2017-09-25T22:04:41.531Z,99354.20
2017-09-25T22:07:09.004Z,99357.43
2017-09-25T22:09:36.496Z,99356.38
2017-09-25T22:12:03.969Z,99357.93
2017-09-25T22:14:31.475Z,99355.58
2017-09-25T22:16:58.963Z,99354.42
2017-09-25T22:19:26.429Z,99358.28
2017-09-25T22:21:53.901Z,99360.08
2017-09-25T22:24:21.369Z,99357.86
2017-09-25T22:26:49.191Z,99361.61
2017-09-25T22:29:16.661Z,99356.00
2017-09-25T22:31:44.125Z,99361.42
2017-09-25T22:34:11.684Z,99358.33
2017-09-25T22:36:39.143Z,99356.59
2017-09-25T22:39:06.981Z,99352.39
2017-09-25T22:41:35.150Z,99362.84
2017-09-25T22:44:07.142Z,99355.09
2017-09-25T22:46:34.604Z,99353.78
2017-09-25T22:49:02.423Z,99360.14
2017-09-25T22:51:29.891Z,99358.09
2017-09-25T22:53:57.445Z,99360.58
2017-09-25T22:56:24.921Z,99358.28
2017-09-25T22:58:52.406Z,99354.80
2017-09-25T23:01:19.890Z,99360.03
2017-09-25T23:03:49.957Z,99358.28
2017-09-25T23:06:17.796Z,99356.89
2017-09-25T23:08:45.263Z,99359.95
2017-09-25T23:11:12.724Z,99356.73
2017-09-25T23:13:40.191Z,99357.63
2017-09-25T23:16:07.722Z,99349.27
2017-09-25T23:18:35.186Z,99354.66
2017-09-25T23:21:02.645Z,99346.80
2017-09-25T23:23:30.122Z,99360.23
2017-09-25T23:25:57.580Z,99356.00
2017-09-25T23:28:25.426Z,99358.11
2017-09-25T23:30:55.840Z,99353.95
2017-09-25T23:33:23.310Z,99352.28
2017-09-25T23:35:50.872Z,99352.70
2017-09-25T23:38:18.344Z,99352.77
2017-09-25T23:40:45.809Z,99350.22
2017-09-25T23:43:13.264Z,99351.19
2017-09-25T23:45:41.018Z,99354.48
2017-09-25T23:48:08.532Z,99352.58
2017-09-25T23:50:36.024Z,99358.35
2017-09-25T23:53:03.511Z,99360.09
2017-09-25T23:55:30.983Z,99361.52
2017-09-25T23:57:58.480Z,99366.39
